Time;durP1;ratioP1;P1;durP2;ratioP2;P2;SDS_P1;SDS_P2;PMS_P1;PMS_P2;Temp;Humidity;BMP_temperature;BMP_pressure;BME280_temperature;BME280_humidity;BME280_pressure;Samples;Min_cycle;Max_cycle;Signal;HPM_P1;HPM_P2
2023/06/15 00:01:50;;;;;;;4.90;3.90;;;;;;;14.32;61.64;98500.25;4977827;28;20301;-63
2023/06/15 00:04:17;;;;;;;6.07;4.77;;;;;;;14.39;62.11;98503.78;4974270;28;20950;-63
2023/06/15 00:06:43;;;;;;;6.30;4.60;;;;;;;14.34;61.72;98500.88;4979253;28;20561;-64
2023/06/15 00:09:10;;;;;;;7.97;4.33;;;;;;;14.34;61.61;98495.63;4975284;28;20245;-64
2023/06/15 00:11:37;;;;;;;5.10;4.60;;;;;;;14.39;61.95;98495.91;4976683;28;20717;-63
2023/06/15 00:14:03;;;;;;;8.47;4.10;;;;;;;14.35;61.09;98493.84;4973309;28;20707;-63
2023/06/15 00:16:31;;;;;;;6.43;4.23;;;;;;;14.39;62.45;98505.63;4977509;28;20704;-63
2023/06/15 00:18:59;;;;;;;7.27;4.40;;;;;;;14.29;62.54;98492.75;4974794;28;20370;-64
2023/06/15 00:21:26;;;;;;;9.23;4.77;;;;;;;14.23;62.78;98493.47;4977529;28;20715;-63
2023/06/15 00:23:57;;;;;;;7.60;5.17;;;;;;;14.32;61.94;98501.06;4968585;28;20382;-63
2023/06/15 00:26:23;;;;;;;7.27;4.37;;;;;;;14.19;62.54;98495.63;4967980;28;20247;-63
2023/06/15 00:28:54;;;;;;;5.33;4.23;;;;;;;14.15;62.08;98499.59;4975797;28;20235;-63
2023/06/15 00:31:22;;;;;;;8.43;4.90;;;;;;;14.11;62.55;98506.19;4971562;28;20245;-63
2023/06/15 00:33:50;;;;;;;5.13;4.30;;;;;;;14.19;62.49;98513.19;4973103;28;20972;-63
2023/06/15 00:36:18;;;;;;;7.03;4.63;;;;;;;14.10;63.25;98510.63;4965302;28;20246;-63
2023/06/15 00:38:45;;;;;;;6.23;4.50;;;;;;;14.14;62.37;98501.41;4975568;28;20235;-63
2023/06/15 00:41:12;;;;;;;6.73;4.33;;;;;;;14.18;62.61;98509.72;4974842;28;20243;-64
2023/06/15 00:43:38;;;;;;;7.27;4.63;;;;;;;14.11;62.09;98514.06;4972504;28;20214;-63
2023/06/15 00:46:05;;;;;;;7.03;4.33;;;;;;;14.05;63.26;98506.88;4972959;28;20788;-63
2023/06/15 00:48:32;;;;;;;6.40;4.20;;;;;;;14.15;63.51;98508.28;4978469;28;20282;-63
2023/06/15 00:51:00;;;;;;;7.40;4.53;;;;;;;14.09;64.05;98513.41;4970568;28;20912;-63
2023/06/15 00:53:27;;;;;;;7.27;4.70;;;;;;;14.10;63.58;98515.88;4973013;28;20239;-63
2023/06/15 00:55:54;;;;;;;13.27;4.90;;;;;;;14.13;63.92;98509.44;4973321;28;20225;-63
2023/06/15 00:58:21;;;;;;;6.70;3.97;;;;;;;14.14;63.86;98513.69;4972115;28;20313;-63
2023/06/15 01:00:49;;;;;;;6.47;4.63;;;;;;;14.09;63.94;98513.41;4968952;28;20220;-63
2023/06/15 01:03:20;;;;;;;9.77;4.37;;;;;;;13.96;63.88;98509.56;4959068;28;20219;-63
2023/06/15 01:05:49;;;;;;;5.17;4.20;;;;;;;13.92;63.78;98510.09;4987160;28;20246;-63
2023/06/15 01:08:17;;;;;;;8.30;4.53;;;;;;;13.93;65.08;98512.53;4974396;28;20352;-63
2023/06/15 01:10:45;;;;;;;6.30;4.30;;;;;;;13.86;65.42;98514.22;4972132;28;20728;-63
2023/06/15 01:13:13;;;;;;;7.33;4.70;;;;;;;13.83;63.58;98515.41;4966413;28;20235;-64
2023/06/15 01:15:40;;;;;;;6.90;4.50;;;;;;;13.82;63.53;98515.56;4975763;28;20227;-64
2023/06/15 01:18:08;;;;;;;7.90;4.40;;;;;;;13.79;63.66;98511.50;4972267;28;20705;-64
2023/06/15 01:20:39;;;;;;;6.40;4.73;;;;;;;13.80;64.10;98514.94;4979981;28;20223;-64
2023/06/15 01:23:22;;;;;;;4.80;4.30;;;;;;;13.77;63.98;98512.69;4969529;28;20234;-64
2023/06/15 01:26:05;;;;;;;6.20;4.73;;;;;;;13.71;63.59;98509.75;4982718;28;20291;-64
2023/06/15 01:28:32;;;;;;;8.73;4.53;;;;;;;13.75;64.06;98507.59;4980275;28;20673;-65
2023/06/15 01:31:01;;;;;;;5.83;4.83;;;;;;;13.93;64.49;98506.50;4981294;28;20594;-65
2023/06/15 01:33:31;;;;;;;6.03;4.57;;;;;;;13.86;64.65;98503.72;4980404;28;20243;-65
2023/06/15 01:35:57;;;;;;;4.63;4.20;;;;;;;13.89;64.52;98503.38;4978293;28;20577;-64
2023/06/15 01:38:29;;;;;;;8.77;5.43;;;;;;;13.81;64.71;98498.19;4980438;28;20220;-64
2023/06/15 01:40:57;;;;;;;6.50;4.47;;;;;;;13.79;64.18;98497.56;4982475;28;20645;-65
2023/06/15 01:43:32;;;;;;;6.50;4.77;;;;;;;13.83;62.99;98494.41;4969438;28;20227;-65
2023/06/15 01:46:00;;;;;;;6.03;4.70;;;;;;;13.84;62.59;98498.69;4981306;28;20572;-65
2023/06/15 01:48:27;;;;;;;6.87;4.60;;;;;;;13.91;62.90;98496.16;4983803;28;20289;-65
2023/06/15 01:50:55;;;;;;;5.67;4.30;;;;;;;13.97;62.64;98495.47;4982764;28;20237;-65
2023/06/15 01:53:21;;;;;;;5.03;4.33;;;;;;;14.07;62.09;98495.22;4980736;28;20238;-65
2023/06/15 01:55:48;;;;;;;8.70;4.70;;;;;;;14.14;62.17;98509.28;4983142;28;20237;-65
2023/06/15 01:58:15;;;;;;;12.63;5.47;;;;;;;14.15;61.79;98503.03;4980904;28;20239;-65
2023/06/15 02:00:44;;;;;;;7.03;4.87;;;;;;;14.12;61.50;98505.19;4984289;28;20240;-65
2023/06/15 02:03:11;;;;;;;9.77;4.53;;;;;;;14.07;61.68;98503.09;4980286;28;20243;-65
2023/06/15 02:05:39;;;;;;;4.77;4.07;;;;;;;14.02;61.91;98502.81;4985181;28;20277;-65
2023/06/15 02:08:07;;;;;;;8.27;4.60;;;;;;;13.98;62.62;98499.72;4981090;28;20237;-65
2023/06/15 02:10:34;;;;;;;6.57;4.43;;;;;;;13.92;62.27;98503.03;4983490;28;20228;-65
2023/06/15 02:13:00;;;;;;;6.60;4.47;;;;;;;13.87;62.57;98506.19;4980896;28;20238;-65
2023/06/15 02:15:27;;;;;;;7.33;4.90;;;;;;;13.91;63.00;98503.22;4983929;28;20315;-65
2023/06/15 02:17:58;;;;;;;7.27;4.60;;;;;;;13.88;63.65;98504.38;4984117;28;20233;-65
2023/06/15 02:20:26;;;;;;;7.10;4.47;;;;;;;13.86;63.42;98503.72;4981808;28;20232;-65
2023/06/15 02:22:53;;;;;;;8.13;4.30;;;;;;;13.91;63.51;98509.28;4983907;28;20235;-65
2023/06/15 02:25:20;;;;;;;6.70;4.50;;;;;;;13.97;63.30;98507.78;4980492;28;20234;-65
2023/06/15 02:27:47;;;;;;;5.40;4.70;;;;;;;14.00;63.35;98510.84;4983815;28;20238;-65
2023/06/15 02:30:14;;;;;;;7.50;4.23;;;;;;;13.91;62.78;98505.84;4980977;28;20249;-65
2023/06/15 02:32:42;;;;;;;4.97;4.13;;;;;;;13.87;63.48;98510.63;4983695;28;20233;-65
2023/06/15 02:35:12;;;;;;;5.80;4.23;;;;;;;13.84;62.88;98510.97;4980026;28;20280;-65
2023/06/15 02:37:40;;;;;;;5.13;4.50;;;;;;;13.79;63.23;98516.75;4982822;28;20241;-65
2023/06/15 02:40:08;;;;;;;6.07;4.80;;;;;;;13.71;63.49;98516.81;4981056;28;20234;-65
2023/06/15 02:42:36;;;;;;;8.00;4.23;;;;;;;13.77;64.13;98517.94;4982437;28;20597;-65
2023/06/15 02:45:03;;;;;;;5.37;4.40;;;;;;;13.72;63.60;98516.63;4980677;28;20733;-65
2023/06/15 02:47:31;;;;;;;6.67;4.60;;;;;;;13.69;64.04;98518.78;4983042;28;20238;-65
2023/06/15 02:49:59;;;;;;;7.17;4.77;;;;;;;13.71;64.40;98524.66;4996462;28;20229;-65
2023/06/15 02:52:30;;;;;;;5.30;4.30;;;;;;;13.67;64.81;98526.84;4983207;28;20319;-65
2023/06/15 02:54:57;;;;;;;5.23;4.30;;;;;;;13.70;64.57;98526.50;4982844;28;20265;-65
2023/06/15 02:57:24;;;;;;;5.77;4.40;;;;;;;13.67;64.61;98533.88;4980509;28;20290;-65
2023/06/15 03:00:03;;;;;;;7.07;4.20;;;;;;;13.63;64.82;98524.72;4979918;28;20234;-65
2023/06/15 03:02:33;;;;;;;5.20;4.30;;;;;;;13.49;65.23;98528.91;4983232;28;20239;-65
2023/06/15 03:05:00;;;;;;;5.23;4.30;;;;;;;13.43;65.30;98525.97;4979297;28;20228;-65
2023/06/15 03:07:41;;;;;;;7.33;4.50;;;;;;;13.43;65.79;98531.22;4980227;28;20263;-65
2023/06/15 03:10:20;;;;;;;8.00;4.60;;;;;;;13.35;66.93;98530.41;4980254;28;20313;-65
2023/06/15 03:12:47;;;;;;;6.80;4.37;;;;;;;13.32;66.79;98542.06;4983446;28;20229;-65
2023/06/15 03:15:14;;;;;;;5.67;4.60;;;;;;;13.29;66.63;98539.78;4979321;28;20264;-65
2023/06/15 03:17:42;;;;;;;5.67;4.70;;;;;;;13.23;66.80;98535.22;4983631;28;20601;-65
2023/06/15 03:20:12;;;;;;;10.10;4.67;;;;;;;13.24;68.20;98536.84;4980202;28;20241;-65
2023/06/15 03:22:42;;;;;;;7.50;4.60;;;;;;;13.24;68.21;98539.47;4982474;28;20743;-65
2023/06/15 03:25:11;;;;;;;7.37;4.50;;;;;;;13.22;68.51;98544.06;4979417;28;20250;-65
2023/06/15 03:27:40;;;;;;;8.77;4.70;;;;;;;13.22;68.11;98541.44;4984636;28;20245;-65
2023/06/15 03:32:54;;;;;;;7.13;4.70;;;;;;;13.26;68.82;98547.97;5047131;23;20321;-64
2023/06/15 03:35:21;;;;;;;6.13;4.53;;;;;;;13.24;68.51;98552.56;4950251;28;20230;-64
2023/06/15 03:37:49;;;;;;;9.27;5.27;;;;;;;13.21;67.56;98547.66;4971101;28;20241;-64
2023/06/15 03:40:16;;;;;;;10.07;4.37;;;;;;;13.24;68.13;98549.94;4954123;28;20732;-64
2023/06/15 03:42:43;;;;;;;6.97;4.57;;;;;;;13.25;68.47;98552.38;4956235;28;20677;-64
2023/06/15 03:45:10;;;;;;;6.00;4.60;;;;;;;13.28;68.77;98546.00;4974287;28;20235;-64
2023/06/15 03:47:37;;;;;;;9.37;5.27;;;;;;;13.45;68.69;98553.84;4960433;28;20233;-64
2023/06/15 03:50:06;;;;;;;10.40;5.30;;;;;;;13.48;69.57;98561.34;4953807;28;20698;-64
2023/06/15 03:52:35;;;;;;;7.10;4.70;;;;;;;13.48;68.91;98562.16;4956380;28;20317;-64
2023/06/15 03:55:05;;;;;;;6.80;4.50;;;;;;;13.49;69.28;98565.63;4953703;28;20273;-64
2023/06/15 03:57:32;;;;;;;5.97;4.40;;;;;;;13.57;69.04;98565.56;4962170;28;20227;-64
2023/06/15 03:59:58;;;;;;;5.43;4.47;;;;;;;13.54;69.23;98561.47;4956281;28;20235;-64
2023/06/15 04:02:26;;;;;;;8.80;4.77;;;;;;;13.53;69.54;98562.47;4960067;28;20242;-64
2023/06/15 04:04:55;;;;;;;8.60;5.30;;;;;;;13.48;70.73;98562.16;4957789;28;20301;-64
2023/06/15 04:07:22;;;;;;;6.67;4.80;;;;;;;13.47;70.42;98570.22;4956241;28;20234;-64
2023/06/15 04:09:49;;;;;;;9.70;5.43;;;;;;;13.47;69.72;98572.84;4958088;28;20320;-64
2023/06/15 04:12:17;;;;;;;13.23;4.90;;;;;;;13.44;69.83;98571.34;4954907;28;20233;-64
2023/06/15 04:14:44;;;;;;;5.93;4.93;;;;;;;13.44;69.97;98573.97;4976928;28;20329;-64
2023/06/15 04:17:11;;;;;;;6.33;4.50;;;;;;;13.45;70.80;98580.06;4972376;28;20709;-64
2023/06/15 04:19:37;;;;;;;6.50;4.97;;;;;;;13.49;70.61;98581.34;4959923;28;20231;-64
2023/06/15 04:22:04;;;;;;;6.20;4.80;;;;;;;13.57;70.87;98583.94;4974160;28;20238;-64
2023/06/15 04:24:32;;;;;;;6.30;4.93;;;;;;;13.58;71.12;98582.94;4955029;28;20278;-64
2023/06/15 04:26:59;;;;;;;6.70;5.33;;;;;;;13.63;71.28;98585.88;4972207;28;20236;-64
2023/06/15 04:29:30;;;;;;;7.00;5.10;;;;;;;13.69;70.82;98594.84;4959848;28;20232;-64
2023/06/15 04:31:57;;;;;;;6.93;5.03;;;;;;;13.77;71.30;98594.00;4961205;28;20235;-64
2023/06/15 04:34:27;;;;;;;6.90;5.03;;;;;;;13.85;71.37;98599.19;4955278;28;20353;-64
2023/06/15 04:36:56;;;;;;;5.60;5.00;;;;;;;13.94;70.90;98603.41;4958215;28;20228;-64
2023/06/15 04:39:25;;;;;;;10.57;5.27;;;;;;;14.05;70.10;98601.38;4956458;28;20237;-64
2023/06/15 04:41:54;;;;;;;5.30;4.40;;;;;;;14.13;69.74;98599.53;4956083;28;20318;-65
2023/06/15 04:44:21;;;;;;;8.47;5.20;;;;;;;14.19;71.15;98605.88;4953779;28;20232;-65
2023/06/15 04:46:49;;;;;;;6.50;5.20;;;;;;;14.28;70.49;98609.28;4954963;28;20258;-65
2023/06/15 04:49:15;;;;;;;8.23;4.23;;;;;;;14.34;71.61;98613.78;4953117;28;20228;-65
2023/06/15 04:51:44;;;;;;;7.27;5.07;;;;;;;14.39;71.41;98618.53;4975555;28;20241;-65
2023/06/15 04:54:11;;;;;;;5.80;5.00;;;;;;;14.42;70.29;98615.56;4972204;28;20236;-65
2023/06/15 04:56:38;;;;;;;7.27;5.10;;;;;;;14.40;72.56;98620.16;4957515;28;20231;-65
2023/06/15 04:59:05;;;;;;;7.00;5.00;;;;;;;14.43;71.91;98619.81;4954849;28;20228;-65
2023/06/15 05:01:32;;;;;;;7.60;5.20;;;;;;;14.46;71.55;98630.78;4957097;28;20291;-65
2023/06/15 05:04:00;;;;;;;5.63;5.00;;;;;;;14.54;71.62;98623.81;4971263;28;20325;-65
2023/06/15 05:06:27;;;;;;;7.63;4.70;;;;;;;14.59;71.31;98618.84;4975216;28;20233;-65
2023/06/15 05:08:58;;;;;;;7.97;5.03;;;;;;;14.63;71.05;98630.66;4954455;28;20234;-65
2023/06/15 05:11:25;;;;;;;10.90;5.60;;;;;;;14.68;71.48;98627.50;4956914;28;20245;-65
2023/06/15 05:13:57;;;;;;;7.30;5.40;;;;;;;14.73;71.49;98631.25;4973459;28;20288;-65
2023/06/15 05:16:24;;;;;;;5.97;5.20;;;;;;;14.83;70.58;98627.56;4953905;28;20286;-65
2023/06/15 05:18:59;;;;;;;6.80;5.17;;;;;;;14.85;70.96;98629.00;4953978;28;20241;-65
2023/06/15 05:21:26;;;;;;;7.10;5.00;;;;;;;14.88;70.98;98633.09;4957120;28;20576;-65
2023/06/15 05:23:57;;;;;;;6.60;5.53;;;;;;;14.89;71.08;98637.34;4955327;28;20614;-65
2023/06/15 05:26:24;;;;;;;7.60;4.93;;;;;;;14.86;71.14;98630.63;4953668;28;20232;-65
2023/06/15 05:29:02;;;;;;;7.13;5.10;;;;;;;14.90;70.47;98628.47;4953184;28;20696;-65
2023/06/15 05:31:29;;;;;;;8.43;5.03;;;;;;;14.94;70.07;98632.38;4956465;28;20237;-65
2023/06/15 05:34:00;;;;;;;7.70;4.93;;;;;;;15.01;69.72;98637.72;4953399;28;20227;-66
2023/06/15 05:36:30;;;;;;;8.10;5.13;;;;;;;15.04;69.77;98638.19;4955688;28;20318;-65
2023/06/15 05:38:57;;;;;;;6.77;4.83;;;;;;;15.15;69.25;98638.75;4960980;28;20239;-65
2023/06/15 05:41:25;;;;;;;8.50;5.37;;;;;;;15.57;69.11;98639.13;4955391;28;20234;-65
2023/06/15 05:43:59;;;;;;;5.43;4.83;;;;;;;15.98;69.18;98643.06;4954763;28;20308;-66
2023/06/15 05:46:26;;;;;;;9.63;5.40;;;;;;;16.25;67.29;98641.53;4955392;28;20243;-65
2023/06/15 05:48:59;;;;;;;7.37;5.13;;;;;;;16.52;66.52;98644.41;4972917;28;20866;-66
2023/06/15 05:51:26;;;;;;;6.03;4.63;;;;;;;16.63;66.75;98646.56;4952934;28;20322;-65
2023/06/15 05:53:57;;;;;;;5.27;4.70;;;;;;;16.74;66.17;98644.41;4973594;28;20220;-66
2023/06/15 05:56:24;;;;;;;6.57;4.63;;;;;;;16.83;65.37;98643.28;4953195;28;20242;-66
2023/06/15 05:58:54;;;;;;;8.87;4.80;;;;;;;16.99;63.77;98649.28;4955020;28;20232;-66
2023/06/15 06:01:21;;;;;;;8.40;4.47;;;;;;;17.13;63.02;98650.19;4949847;28;20338;-66
2023/06/15 06:03:49;;;;;;;5.80;4.70;;;;;;;17.26;63.21;98658.19;4955646;28;20237;-65
2023/06/15 06:06:17;;;;;;;10.07;4.50;;;;;;;17.41;63.19;98652.78;4953578;28;20236;-66
2023/06/15 06:08:44;;;;;;;5.00;4.50;;;;;;;17.56;62.81;98661.41;4965480;28;20232;-65
2023/06/15 06:11:10;;;;;;;7.13;4.80;;;;;;;17.62;61.91;98653.72;4970006;28;20230;-65
2023/06/15 06:13:40;;;;;;;7.07;5.43;;;;;;;17.65;60.82;98659.41;4956590;28;20322;-65
2023/06/15 06:16:07;;;;;;;6.53;5.77;;;;;;;17.66;58.82;98666.31;4954186;28;20883;-65
2023/06/15 06:18:34;;;;;;;5.93;5.30;;;;;;;17.74;58.58;98665.34;4956350;28;20292;-65
2023/06/15 06:21:00;;;;;;;10.80;5.87;;;;;;;17.76;57.87;98663.31;4954492;28;20228;-65
2023/06/15 06:23:28;;;;;;;12.23;6.07;;;;;;;17.87;58.36;98667.22;4970914;28;20241;-65
2023/06/15 06:25:56;;;;;;;16.23;5.83;;;;;;;18.05;57.32;98664.03;4955922;28;20225;-66
2023/06/15 06:28:23;;;;;;;8.27;5.50;;;;;;;18.12;56.73;98661.44;4949842;28;20612;-65
2023/06/15 06:30:50;;;;;;;13.80;5.77;;;;;;;18.17;57.18;98669.59;4954579;28;20292;-65
2023/06/15 06:33:16;;;;;;;9.20;5.93;;;;;;;18.27;58.89;98662.09;4971744;28;20643;-65
2023/06/15 06:35:43;;;;;;;10.67;5.37;;;;;;;18.40;58.03;98668.44;4956537;28;20281;-65
2023/06/15 06:38:09;;;;;;;9.37;5.60;;;;;;;18.60;57.81;98673.72;4971145;28;20258;-65
2023/06/15 06:40:37;;;;;;;5.93;5.33;;;;;;;18.84;58.28;98672.31;4973593;28;20238;-65
2023/06/15 06:43:04;;;;;;;8.70;5.43;;;;;;;18.99;58.38;98669.50;4969339;28;20229;-65
2023/06/15 06:45:31;;;;;;;7.90;5.60;;;;;;;19.05;57.59;98675.78;4955563;28;20577;-65
2023/06/15 06:47:57;;;;;;;7.97;5.37;;;;;;;19.18;57.88;98675.78;4974117;28;20245;-65
2023/06/15 06:50:24;;;;;;;8.27;5.40;;;;;;;19.33;58.03;98680.03;4971668;28;20234;-65
2023/06/15 06:52:51;;;;;;;9.47;5.40;;;;;;;19.41;56.84;98677.19;4976138;28;20237;-65
2023/06/15 06:55:17;;;;;;;6.70;5.60;;;;;;;19.49;52.60;98673.47;4971020;28;20231;-65
2023/06/15 06:57:45;;;;;;;9.03;5.63;;;;;;;19.33;53.42;98675.53;4955713;28;20287;-65
2023/06/15 07:00:13;;;;;;;7.40;5.70;;;;;;;19.39;53.11;98683.69;4975548;28;20227;-65
2023/06/15 07:02:40;;;;;;;7.13;5.67;;;;;;;19.60;54.06;98686.06;4972159;28;20241;-65
2023/06/15 07:05:06;;;;;;;8.47;5.60;;;;;;;19.72;54.60;98678.28;4973876;28;20227;-65
2023/06/15 07:07:33;;;;;;;10.73;5.47;;;;;;;19.60;54.15;98680.78;4971883;28;20231;-65
2023/06/15 07:10:00;;;;;;;6.40;5.33;;;;;;;19.86;53.58;98687.00;4970490;28;20247;-65
2023/06/15 07:12:26;;;;;;;8.20;5.30;;;;;;;19.93;54.19;98686.22;4976497;28;20246;-65
2023/06/15 07:14:55;;;;;;;8.87;5.10;;;;;;;19.97;53.12;98685.56;4974082;28;20714;-65
2023/06/15 07:17:21;;;;;;;10.30;5.30;;;;;;;19.89;53.26;98688.44;4970292;28;20314;-65
2023/06/15 07:19:48;;;;;;;8.40;5.40;;;;;;;20.04;54.00;98682.91;4976195;28;20741;-65
2023/06/15 07:22:15;;;;;;;6.20;5.20;;;;;;;20.09;54.41;98677.78;4973612;28;20302;-65
2023/06/15 07:24:41;;;;;;;11.20;5.63;;;;;;;20.17;54.14;98685.44;4967259;28;20242;-65
2023/06/15 07:27:08;;;;;;;7.47;5.20;;;;;;;20.22;53.54;98682.19;4976310;28;20239;-65
2023/06/15 07:29:34;;;;;;;7.47;5.30;;;;;;;20.33;53.04;98684.16;4976560;28;20247;-65
2023/06/15 07:32:02;;;;;;;7.17;5.20;;;;;;;20.43;52.29;98686.34;4974793;28;20591;-65
2023/06/15 07:34:29;;;;;;;8.87;6.27;;;;;;;20.40;53.20;98683.31;4960434;28;20285;-65
2023/06/15 07:36:55;;;;;;;7.93;5.37;;;;;;;20.40;52.28;98688.63;4979838;28;20238;-65
2023/06/15 07:39:22;;;;;;;13.23;5.30;;;;;;;20.34;53.04;98687.59;4976953;28;20660;-65
2023/06/15 07:41:48;;;;;;;10.77;5.13;;;;;;;20.52;52.75;98683.44;4978363;28;20220;-66
2023/06/15 07:44:15;;;;;;;6.40;5.30;;;;;;;20.61;52.67;98682.97;4977275;28;20233;-65
2023/06/15 07:46:42;;;;;;;6.50;5.30;;;;;;;20.63;51.92;98688.03;4980117;28;20283;-65
2023/06/15 07:49:10;;;;;;;9.23;5.10;;;;;;;20.50;52.15;98683.66;4976588;28;20248;-65
2023/06/15 07:51:37;;;;;;;5.40;4.90;;;;;;;20.25;53.46;98680.94;4977958;28;20583;-65
2023/06/15 07:54:04;;;;;;;13.90;5.47;;;;;;;20.21;54.60;98685.84;4973484;28;20241;-65
2023/06/15 07:56:31;;;;;;;6.83;5.43;;;;;;;20.28;53.55;98689.28;4977606;28;20239;-65
2023/06/15 07:58:57;;;;;;;8.20;5.40;;;;;;;20.51;52.93;98695.88;4976030;28;20299;-65
2023/06/15 08:01:25;;;;;;;6.03;4.73;;;;;;;20.60;52.82;98694.59;4950298;28;20237;-65
2023/06/15 08:03:57;;;;;;;7.00;5.03;;;;;;;20.99;50.91;98697.19;4977009;28;20251;-65
2023/06/15 08:06:25;;;;;;;8.10;5.37;;;;;;;21.04;50.97;98702.66;4976003;28;20243;-65
2023/06/15 08:08:57;;;;;;;5.77;4.97;;;;;;;21.15;51.06;98695.03;4955738;28;20621;-65
2023/06/15 08:11:24;;;;;;;8.60;4.97;;;;;;;21.18;50.70;98697.25;4951975;28;20254;-65
2023/06/15 08:13:54;;;;;;;8.57;5.33;;;;;;;21.19;51.00;98689.03;4973578;28;20688;-65
2023/06/15 08:16:21;;;;;;;5.80;5.17;;;;;;;21.31;50.50;98697.09;4974533;28;20235;-65
2023/06/15 08:18:47;;;;;;;7.50;5.37;;;;;;;21.46;50.40;98695.91;4974208;28;20293;-65
2023/06/15 08:21:16;;;;;;;6.67;4.93;;;;;;;21.53;50.18;98691.34;4969708;28;20301;-65
2023/06/15 08:23:44;;;;;;;5.47;4.97;;;;;;;21.78;49.73;98695.81;4974939;28;20640;-65
2023/06/15 08:26:11;;;;;;;5.73;5.00;;;;;;;22.01;49.46;98691.66;4971891;28;20236;-65
2023/06/15 08:28:37;;;;;;;5.70;5.10;;;;;;;22.13;48.63;98692.53;4977379;28;20226;-65
2023/06/15 08:31:04;;;;;;;7.03;4.90;;;;;;;22.15;47.93;98685.13;4970235;28;20727;-65
2023/06/15 08:33:31;;;;;;;5.67;5.10;;;;;;;22.36;47.74;98690.97;4976277;28;20330;-65
2023/06/15 08:35:57;;;;;;;9.30;5.27;;;;;;;22.34;48.90;98690.38;4973078;28;20234;-65
2023/06/15 08:38:24;;;;;;;5.43;4.70;;;;;;;22.48;46.72;98696.38;4972258;28;20809;-65
2023/06/15 08:40:52;;;;;;;6.47;4.80;;;;;;;22.78;44.50;98695.53;4974645;28;20327;-65
2023/06/15 08:43:20;;;;;;;5.00;4.50;;;;;;;22.68;44.99;98691.56;4970930;28;22404;-65
2023/06/15 08:45:49;;;;;;;6.77;4.77;;;;;;;22.79;45.68;98689.97;4975602;28;20586;-65
2023/06/15 08:48:18;;;;;;;7.60;4.70;;;;;;;22.95;45.73;98690.31;4972523;28;20261;-65
2023/06/15 08:50:45;;;;;;;6.07;4.77;;;;;;;23.14;44.17;98689.19;4974755;28;20239;-65
2023/06/15 08:53:14;;;;;;;10.40;4.87;;;;;;;23.20;43.25;98689.28;4972920;28;20234;-65
2023/06/15 08:55:41;;;;;;;9.83;5.00;;;;;;;23.29;41.93;98688.72;4976538;28;20238;-65
2023/06/15 08:58:10;;;;;;;6.03;4.90;;;;;;;23.40;41.39;98692.41;4972173;28;20243;-65
2023/06/15 09:00:36;;;;;;;12.23;5.20;;;;;;;23.32;40.94;98690.09;4975957;28;20225;-65
2023/06/15 09:03:07;;;;;;;9.70;4.57;;;;;;;23.48;42.44;98693.09;4974221;28;20578;-65
2023/06/15 09:05:33;;;;;;;5.67;4.90;;;;;;;23.68;42.10;98698.06;4975087;28;20237;-65
2023/06/15 09:08:00;;;;;;;8.00;4.80;;;;;;;23.76;42.36;98692.38;4973407;28;20232;-65
2023/06/15 09:10:27;;;;;;;7.67;4.30;;;;;;;23.67;40.36;98697.25;4974530;28;20231;-65
2023/06/15 09:12:56;;;;;;;7.67;4.03;;;;;;;23.76;39.70;98696.88;4960856;28;20236;-65
2023/06/15 09:15:26;;;;;;;7.07;4.77;;;;;;;23.72;39.49;98689.34;4971990;28;20238;-65
2023/06/15 09:17:54;;;;;;;7.40;5.17;;;;;;;23.59;38.64;98684.28;4976640;28;20226;-65
2023/06/15 09:20:22;;;;;;;7.00;4.87;;;;;;;23.80;38.32;98685.53;4973753;28;20614;-65
2023/06/15 09:22:48;;;;;;;6.63;4.83;;;;;;;23.67;40.18;98702.56;4971879;28;20226;-65
2023/06/15 09:25:17;;;;;;;6.57;4.53;;;;;;;23.87;40.16;98690.72;4970175;28;20233;-65
2023/06/15 09:27:54;;;;;;;4.80;4.30;;;;;;;23.74;38.21;98697.94;4974098;28;20265;-65
2023/06/15 09:30:21;;;;;;;6.40;4.63;;;;;;;23.83;36.51;98690.38;4970408;28;20594;-65
2023/06/15 09:32:49;;;;;;;8.70;4.57;;;;;;;24.05;36.63;98684.41;4972946;28;20238;-65
2023/06/15 09:35:16;;;;;;;6.67;4.40;;;;;;;24.23;37.17;98685.25;4971096;28;20230;-65
2023/06/15 09:37:43;;;;;;;6.13;4.20;;;;;;;24.23;36.34;98695.94;4958459;28;20307;-65
2023/06/15 09:40:12;;;;;;;5.37;4.30;;;;;;;24.17;36.54;98684.38;4974507;28;20225;-65
2023/06/15 09:42:43;;;;;;;7.07;4.40;;;;;;;24.04;35.60;98693.47;4972939;28;20245;-65
2023/06/15 09:45:10;;;;;;;6.10;4.13;;;;;;;24.11;35.00;98688.78;4972283;28;20234;-65
2023/06/15 09:47:37;;;;;;;4.43;4.03;;;;;;;23.94;34.95;98685.22;4973101;28;20320;-65
2023/06/15 09:50:11;;;;;;;4.47;4.03;;;;;;;24.08;34.96;98680.47;4970953;28;20236;-65
2023/06/15 09:52:42;;;;;;;7.07;4.40;;;;;;;24.12;34.98;98692.28;4975617;28;20292;-65
2023/06/15 09:55:10;;;;;;;6.77;4.37;;;;;;;24.05;35.38;98699.63;4976138;28;20232;-65
2023/06/15 09:57:37;;;;;;;5.77;4.30;;;;;;;24.11;35.04;98698.66;4976677;28;20236;-65
2023/06/15 10:00:08;;;;;;;5.70;4.30;;;;;;;24.24;34.69;98700.22;4974233;28;20704;-65
2023/06/15 10:02:39;;;;;;;6.60;4.00;;;;;;;24.26;35.14;98698.94;4971336;28;20341;-65
2023/06/15 10:05:13;;;;;;;5.80;4.33;;;;;;;24.32;35.27;98692.66;4971608;28;20239;-65
2023/06/15 10:07:48;;;;;;;4.20;3.53;;;;;;;24.20;34.34;98688.41;4973201;28;20315;-65
2023/06/15 10:10:17;;;;;;;7.33;4.03;;;;;;;23.97;35.94;98693.56;4974701;28;20647;-65
2023/06/15 10:12:49;;;;;;;8.60;4.43;;;;;;;24.17;34.92;98700.38;4972972;28;20725;-64
2023/06/15 10:15:20;;;;;;;5.50;3.90;;;;;;;23.83;34.85;98692.22;4971708;28;20237;-64
2023/06/15 10:17:50;;;;;;;8.53;4.20;;;;;;;23.88;35.85;98695.00;4975332;28;20225;-64
2023/06/15 10:20:19;;;;;;;6.23;3.80;;;;;;;23.86;35.15;98699.75;4970026;28;20261;-64
2023/06/15 10:22:57;;;;;;;6.67;4.03;;;;;;;23.88;35.11;98695.00;4972486;28;20248;-64
2023/06/15 10:25:24;;;;;;;5.33;4.20;;;;;;;23.89;35.95;98702.75;4969626;28;20237;-64
2023/06/15 10:27:51;;;;;;;4.90;4.40;;;;;;;23.83;35.67;98702.88;4975430;28;20775;-64
2023/06/15 10:30:27;;;;;;;6.37;4.40;;;;;;;23.64;36.04;98707.56;4969981;28;20230;-64
2023/06/15 10:33:00;;;;;;;5.63;4.20;;;;;;;23.56;36.91;98711.38;4972661;28;20621;-64
2023/06/15 10:35:33;;;;;;;5.77;4.43;;;;;;;23.52;37.48;98708.41;4972138;28;20682;-64
2023/06/15 10:38:11;;;;;;;5.70;4.77;;;;;;;23.96;35.93;98694.63;4973739;28;20229;-64
2023/06/15 10:40:43;;;;;;;4.83;4.43;;;;;;;24.23;35.95;98691.44;4972293;28;20724;-64
2023/06/15 10:43:17;;;;;;;4.23;3.80;;;;;;;24.61;36.37;98697.13;4969949;28;20228;-65
2023/06/15 10:45:44;;;;;;;7.90;4.50;;;;;;;24.44;35.76;98695.25;4975523;28;20324;-65
2023/06/15 10:48:21;;;;;;;7.00;4.03;;;;;;;24.14;36.42;98700.84;4970727;28;20226;-65
2023/06/15 10:50:51;;;;;;;6.93;4.17;;;;;;;24.15;35.08;98697.94;4973756;28;20324;-65
2023/06/15 10:53:22;;;;;;;4.80;3.93;;;;;;;23.69;36.33;98703.16;4968578;28;20229;-65
2023/06/15 10:55:52;;;;;;;6.87;3.67;;;;;;;23.70;36.30;98711.97;4975257;28;20327;-65
2023/06/15 10:58:19;;;;;;;6.73;4.20;;;;;;;23.52;35.26;98703.06;4973506;28;20232;-65
2023/06/15 11:01:04;;;;;;;6.77;4.30;;;;;;;24.08;35.32;98696.47;4977018;28;20320;-65
2023/06/15 11:03:32;;;;;;;5.37;4.13;;;;;;;24.50;35.57;98704.16;4969577;28;20231;-65
2023/06/15 11:06:06;;;;;;;4.43;3.90;;;;;;;24.44;35.44;98716.59;4970169;28;20716;-64
2023/06/15 11:08:43;;;;;;;4.60;3.67;;;;;;;24.62;34.27;98698.75;4976810;28;20712;-64
2023/06/15 11:11:11;;;;;;;6.53;4.57;;;;;;;24.71;35.56;98705.31;4975558;28;20239;-64
2023/06/15 11:13:54;;;;;;;9.30;4.20;;;;;;;25.13;34.84;98704.13;4975438;28;20571;-64
2023/06/15 11:16:25;;;;;;;5.87;3.80;;;;;;;25.31;34.14;98700.34;4974179;28;20704;-64
2023/06/15 11:18:59;;;;;;;4.63;4.00;;;;;;;24.89;34.36;98709.63;4976452;28;20228;-64
2023/06/15 11:21:29;;;;;;;6.63;4.37;;;;;;;25.14;33.69;98702.25;4958726;28;20703;-64
2023/06/15 11:23:57;;;;;;;8.00;4.20;;;;;;;24.96;33.29;98698.78;4978703;28;20241;-64
2023/06/15 11:26:29;;;;;;;4.80;3.83;;;;;;;24.96;34.35;98700.66;4976948;28;20409;-64
2023/06/15 11:28:59;;;;;;;6.83;4.17;;;;;;;25.10;33.89;98704.59;4974303;28;20225;-64
2023/06/15 11:31:27;;;;;;;5.90;4.00;;;;;;;25.21;34.18;98697.53;4971634;28;20588;-64
2023/06/15 11:33:57;;;;;;;5.03;3.70;;;;;;;25.39;32.61;98698.31;4973646;28;20612;-64
2023/06/15 11:36:24;;;;;;;4.47;3.93;;;;;;;25.64;34.11;98697.88;4966366;28;20709;-64
2023/06/15 11:39:22;;;;;;;5.57;3.60;;;;;;;25.74;32.08;98698.00;4972678;28;20341;-64
2023/06/15 11:41:49;;;;;;;8.55;3.78;;;;;;;25.23;32.93;98679.41;4976139;28;20274;-64